sensor_id;sensor_type;location;lat;lon;timestamp;P1;durP1;ratioP1;P2;durP2;ratioP2
33010;SDS011;19370;48.562;9.196;2024-01-10T06:42:22;34.57;;;15.17;;
33010;SDS011;19370;48.562;9.196;2024-01-10T06:44:48;34.97;;;15.90;;
33010;SDS011;19370;48.562;9.196;2024-01-10T08:26:27;31.25;;;14.68;;
33010;SDS011;19370;48.562;9.196;2024-01-10T08:28:54;29.63;;;13.50;;
33010;SDS011;19370;48.562;9.196;2024-01-10T08:34:42;31.98;;;14.80;;
33010;SDS011;19370;48.562;9.196;2024-01-10T08:37:09;30.88;;;14.27;;
33010;SDS011;19370;48.562;9.196;2024-01-10T08:39:46;31.83;;;13.98;;
33010;SDS011;19370;48.562;9.196;2024-01-10T08:42:12;31.67;;;14.13;;
33010;SDS011;19370;48.562;9.196;2024-01-10T08:44:40;33.53;;;15.07;;
33010;SDS011;19370;48.562;9.196;2024-01-10T08:47:08;31.20;;;14.10;;
33010;SDS011;19370;48.562;9.196;2024-01-10T08:49:33;29.40;;;13.85;;
33010;SDS011;19370;48.562;9.196;2024-01-10T08:51:59;32.22;;;14.50;;
33010;SDS011;19370;48.562;9.196;2024-01-10T08:54:25;30.10;;;13.67;;
33010;SDS011;19370;48.562;9.196;2024-01-10T08:56:50;31.00;;;14.87;;
33010;SDS011;19370;48.562;9.196;2024-01-10T08:59:16;31.60;;;14.02;;
33010;SDS011;19370;48.562;9.196;2024-01-10T09:01:41;32.10;;;15.52;;
33010;SDS011;19370;48.562;9.196;2024-01-10T09:04:07;34.17;;;14.77;;
33010;SDS011;19370;48.562;9.196;2024-01-10T09:06:41;29.43;;;13.77;;
33010;SDS011;19370;48.562;9.196;2024-01-10T09:09:07;30.35;;;13.50;;
33010;SDS011;19370;48.562;9.196;2024-01-10T09:11:33;31.23;;;13.60;;
33010;SDS011;19370;48.562;9.196;2024-01-10T09:13:58;30.63;;;13.63;;
33010;SDS011;19370;48.562;9.196;2024-01-10T09:16:24;28.77;;;13.17;;
33010;SDS011;19370;48.562;9.196;2024-01-10T09:18:49;32.33;;;14.38;;
33010;SDS011;19370;48.562;9.196;2024-01-10T09:21:19;30.73;;;13.50;;
33010;SDS011;19370;48.562;9.196;2024-01-10T09:23:45;32.05;;;14.63;;
33010;SDS011;19370;48.562;9.196;2024-01-10T09:26:12;28.20;;;13.55;;
33010;SDS011;19370;48.562;9.196;2024-01-10T09:28:40;30.97;;;14.03;;
33010;SDS011;19370;48.562;9.196;2024-01-10T09:31:06;31.73;;;14.57;;
33010;SDS011;19370;48.562;9.196;2024-01-10T09:33:32;32.05;;;14.80;;
33010;SDS011;19370;48.562;9.196;2024-01-10T09:35:59;32.07;;;14.03;;
33010;SDS011;19370;48.562;9.196;2024-01-10T09:38:24;33.38;;;15.02;;
33010;SDS011;19370;48.562;9.196;2024-01-10T09:40:51;32.60;;;14.93;;
33010;SDS011;19370;48.562;9.196;2024-01-10T09:43:19;33.72;;;15.43;;
33010;SDS011;19370;48.562;9.196;2024-01-10T09:45:46;35.20;;;15.63;;
33010;SDS011;19370;48.562;9.196;2024-01-10T09:48:14;29.83;;;14.75;;
33010;SDS011;19370;48.562;9.196;2024-01-10T09:50:41;32.30;;;14.57;;
33010;SDS011;19370;48.562;9.196;2024-01-10T09:53:07;33.63;;;15.32;;
33010;SDS011;19370;48.562;9.196;2024-01-10T09:55:41;32.67;;;15.20;;
33010;SDS011;19370;48.562;9.196;2024-01-10T09:58:08;31.40;;;14.35;;
33010;SDS011;19370;48.562;9.196;2024-01-10T10:00:35;31.07;;;13.80;;
33010;SDS011;19370;48.562;9.196;2024-01-10T10:03:03;31.10;;;14.65;;
33010;SDS011;19370;48.562;9.196;2024-01-10T10:05:32;28.73;;;13.90;;
33010;SDS011;19370;48.562;9.196;2024-01-10T10:07:59;33.20;;;14.80;;
33010;SDS011;19370;48.562;9.196;2024-01-10T10:10:25;28.30;;;14.47;;
33010;SDS011;19370;48.562;9.196;2024-01-10T10:12:53;31.13;;;14.80;;
33010;SDS011;19370;48.562;9.196;2024-01-10T13:06:52;27.90;;;14.35;;
33010;SDS011;19370;48.562;9.196;2024-01-10T13:09:17;30.73;;;13.48;;
33010;SDS011;19370;48.562;9.196;2024-01-10T13:11:43;26.13;;;14.70;;
33010;SDS011;19370;48.562;9.196;2024-01-10T13:14:10;26.25;;;13.85;;
33010;SDS011;19370;48.562;9.196;2024-01-10T13:16:36;44.65;;;15.40;;
33010;SDS011;19370;48.562;9.196;2024-01-10T13:19:04;27.47;;;14.63;;
33010;SDS011;19370;48.562;9.196;2024-01-10T13:21:32;28.30;;;13.95;;
33010;SDS011;19370;48.562;9.196;2024-01-10T13:23:58;27.48;;;13.98;;
33010;SDS011;19370;48.562;9.196;2024-01-10T13:26:24;26.53;;;14.00;;
33010;SDS011;19370;48.562;9.196;2024-01-10T13:28:50;25.80;;;13.13;;
33010;SDS011;19370;48.562;9.196;2024-01-10T13:31:16;24.38;;;12.77;;
33010;SDS011;19370;48.562;9.196;2024-01-10T13:33:41;25.97;;;13.20;;
33010;SDS011;19370;48.562;9.196;2024-01-10T13:36:07;24.75;;;12.88;;
33010;SDS011;19370;48.562;9.196;2024-01-10T13:38:33;25.73;;;13.02;;
33010;SDS011;19370;48.562;9.196;2024-01-10T13:41:00;25.20;;;12.60;;
33010;SDS011;19370;48.562;9.196;2024-01-10T13:43:26;25.08;;;12.98;;
33010;SDS011;19370;48.562;9.196;2024-01-10T13:45:53;26.95;;;13.55;;
33010;SDS011;19370;48.562;9.196;2024-01-10T13:48:19;24.47;;;12.90;;
33010;SDS011;19370;48.562;9.196;2024-01-10T13:50:44;24.92;;;12.27;;
33010;SDS011;19370;48.562;9.196;2024-01-10T13:53:11;25.43;;;13.07;;
33010;SDS011;19370;48.562;9.196;2024-01-10T13:55:38;27.70;;;13.80;;
33010;SDS011;19370;48.562;9.196;2024-01-10T13:58:06;28.80;;;14.50;;
33010;SDS011;19370;48.562;9.196;2024-01-10T14:00:32;29.88;;;14.65;;
33010;SDS011;19370;48.562;9.196;2024-01-10T14:02:58;31.77;;;15.47;;
33010;SDS011;19370;48.562;9.196;2024-01-10T14:05:25;29.77;;;15.80;;
33010;SDS011;19370;48.562;9.196;2024-01-10T14:07:51;33.25;;;16.48;;
33010;SDS011;19370;48.562;9.196;2024-01-10T14:10:18;31.87;;;17.13;;
33010;SDS011;19370;48.562;9.196;2024-01-10T14:12:44;34.83;;;17.38;;
33010;SDS011;19370;48.562;9.196;2024-01-10T14:15:10;34.08;;;17.58;;
33010;SDS011;19370;48.562;9.196;2024-01-10T14:17:36;32.37;;;16.53;;
33010;SDS011;19370;48.562;9.196;2024-01-10T14:20:01;37.05;;;18.67;;
33010;SDS011;19370;48.562;9.196;2024-01-10T14:22:28;37.47;;;17.90;;
33010;SDS011;19370;48.562;9.196;2024-01-10T14:24:53;36.13;;;17.95;;
33010;SDS011;19370;48.562;9.196;2024-01-10T14:27:19;34.33;;;18.80;;
33010;SDS011;19370;48.562;9.196;2024-01-10T14:29:45;33.20;;;17.75;;
33010;SDS011;19370;48.562;9.196;2024-01-10T14:32:11;31.23;;;16.83;;
33010;SDS011;19370;48.562;9.196;2024-01-10T14:34:40;32.27;;;17.47;;
33010;SDS011;19370;48.562;9.196;2024-01-10T14:37:06;31.92;;;16.88;;
33010;SDS011;19370;48.562;9.196;2024-01-10T14:39:35;31.75;;;17.63;;
33010;SDS011;19370;48.562;9.196;2024-01-10T14:42:04;33.00;;;17.90;;
33010;SDS011;19370;48.562;9.196;2024-01-10T14:44:34;34.75;;;17.17;;
33010;SDS011;19370;48.562;9.196;2024-01-10T14:47:00;34.67;;;17.13;;
33010;SDS011;19370;48.562;9.196;2024-01-10T14:49:25;32.78;;;17.05;;
33010;SDS011;19370;48.562;9.196;2024-01-10T14:51:51;33.33;;;17.30;;
33010;SDS011;19370;48.562;9.196;2024-01-10T14:54:17;35.70;;;17.60;;
33010;SDS011;19370;48.562;9.196;2024-01-10T14:56:43;33.67;;;17.00;;
33010;SDS011;19370;48.562;9.196;2024-01-10T14:59:12;32.92;;;17.20;;
33010;SDS011;19370;48.562;9.196;2024-01-10T15:01:38;34.80;;;16.35;;
33010;SDS011;19370;48.562;9.196;2024-01-10T15:04:08;34.03;;;16.97;;
33010;SDS011;19370;48.562;9.196;2024-01-10T15:06:34;36.00;;;17.33;;
33010;SDS011;19370;48.562;9.196;2024-01-10T15:09:01;39.87;;;18.37;;
33010;SDS011;19370;48.562;9.196;2024-01-10T15:11:27;36.85;;;17.40;;
33010;SDS011;19370;48.562;9.196;2024-01-10T15:13:53;38.37;;;18.77;;
33010;SDS011;19370;48.562;9.196;2024-01-10T15:16:19;36.63;;;18.03;;
33010;SDS011;19370;48.562;9.196;2024-01-10T15:18:45;38.15;;;17.80;;
33010;SDS011;19370;48.562;9.196;2024-01-10T15:21:12;35.40;;;17.23;;
33010;SDS011;19370;48.562;9.196;2024-01-10T15:23:39;38.30;;;17.20;;
33010;SDS011;19370;48.562;9.196;2024-01-10T15:26:06;34.50;;;17.27;;
33010;SDS011;19370;48.562;9.196;2024-01-10T15:28:32;35.67;;;17.25;;
33010;SDS011;19370;48.562;9.196;2024-01-10T15:30:58;38.57;;;17.97;;
33010;SDS011;19370;48.562;9.196;2024-01-10T15:33:26;40.05;;;16.95;;
33010;SDS011;19370;48.562;9.196;2024-01-10T15:35:53;39.38;;;18.75;;
33010;SDS011;19370;48.562;9.196;2024-01-10T15:38:19;39.15;;;19.23;;
33010;SDS011;19370;48.562;9.196;2024-01-10T15:40:45;38.10;;;18.57;;
33010;SDS011;19370;48.562;9.196;2024-01-10T15:43:12;40.70;;;18.65;;
33010;SDS011;19370;48.562;9.196;2024-01-10T15:45:39;41.27;;;19.30;;
33010;SDS011;19370;48.562;9.196;2024-01-10T15:48:06;38.47;;;18.40;;
33010;SDS011;19370;48.562;9.196;2024-01-10T15:50:32;38.40;;;18.63;;
33010;SDS011;19370;48.562;9.196;2024-01-10T15:52:57;39.28;;;17.55;;
33010;SDS011;19370;48.562;9.196;2024-01-10T15:55:24;37.27;;;17.53;;
33010;SDS011;19370;48.562;9.196;2024-01-10T16:00:22;37.30;;;17.58;;
33010;SDS011;19370;48.562;9.196;2024-01-10T16:02:47;38.47;;;18.37;;
33010;SDS011;19370;48.562;9.196;2024-01-10T16:05:13;40.40;;;18.90;;
33010;SDS011;19370;48.562;9.196;2024-01-10T16:07:46;42.55;;;18.95;;
33010;SDS011;19370;48.562;9.196;2024-01-10T16:10:14;43.95;;;20.05;;
33010;SDS011;19370;48.562;9.196;2024-01-10T16:12:40;47.40;;;20.63;;
33010;SDS011;19370;48.562;9.196;2024-01-10T16:15:06;46.50;;;20.67;;
33010;SDS011;19370;48.562;9.196;2024-01-10T16:17:33;47.30;;;21.60;;
33010;SDS011;19370;48.562;9.196;2024-01-10T16:19:59;45.42;;;20.85;;
33010;SDS011;19370;48.562;9.196;2024-01-10T16:22:24;45.13;;;21.13;;
33010;SDS011;19370;48.562;9.196;2024-01-10T16:24:50;45.33;;;21.40;;
33010;SDS011;19370;48.562;9.196;2024-01-10T16:27:18;48.42;;;21.73;;
33010;SDS011;19370;48.562;9.196;2024-01-10T16:29:44;45.15;;;21.90;;
33010;SDS011;19370;48.562;9.196;2024-01-10T16:32:12;44.75;;;22.05;;
33010;SDS011;19370;48.562;9.196;2024-01-10T16:34:37;52.40;;;23.88;;
33010;SDS011;19370;48.562;9.196;2024-01-10T16:37:09;47.40;;;22.17;;
33010;SDS011;19370;48.562;9.196;2024-01-10T16:39:36;48.20;;;22.17;;
33010;SDS011;19370;48.562;9.196;2024-01-10T16:42:01;49.07;;;23.27;;
33010;SDS011;19370;48.562;9.196;2024-01-10T16:44:28;46.67;;;22.13;;
33010;SDS011;19370;48.562;9.196;2024-01-10T16:47:00;45.13;;;22.65;;
33010;SDS011;19370;48.562;9.196;2024-01-10T16:49:34;45.80;;;20.93;;
33010;SDS011;19370;48.562;9.196;2024-01-10T16:54:28;46.92;;;22.02;;
33010;SDS011;19370;48.562;9.196;2024-01-10T16:56:54;42.25;;;21.45;;
33010;SDS011;19370;48.562;9.196;2024-01-10T16:59:21;41.67;;;21.80;;
33010;SDS011;19370;48.562;9.196;2024-01-10T17:01:48;47.42;;;21.55;;
33010;SDS011;19370;48.562;9.196;2024-01-10T17:04:14;52.60;;;23.97;;
33010;SDS011;19370;48.562;9.196;2024-01-10T17:06:43;49.28;;;23.73;;
33010;SDS011;19370;48.562;9.196;2024-01-10T17:09:21;49.55;;;23.30;;
33010;SDS011;19370;48.562;9.196;2024-01-10T17:11:47;50.57;;;22.63;;
33010;SDS011;19370;48.562;9.196;2024-01-10T17:16:44;45.53;;;21.05;;
33010;SDS011;19370;48.562;9.196;2024-01-10T17:19:14;42.63;;;20.90;;
33010;SDS011;19370;48.562;9.196;2024-01-10T17:21:39;48.53;;;21.50;;
33010;SDS011;19370;48.562;9.196;2024-01-10T17:24:05;52.40;;;22.63;;
33010;SDS011;19370;48.562;9.196;2024-01-10T17:26:31;53.43;;;22.27;;
33010;SDS011;19370;48.562;9.196;2024-01-10T17:29:07;52.05;;;22.35;;
33010;SDS011;19370;48.562;9.196;2024-01-10T17:34:05;53.97;;;22.07;;
33010;SDS011;19370;48.562;9.196;2024-01-10T17:36:34;48.67;;;21.40;;
33010;SDS011;19370;48.562;9.196;2024-01-10T17:39:11;42.95;;;21.13;;
33010;SDS011;19370;48.562;9.196;2024-01-10T17:41:38;42.10;;;20.00;;
33010;SDS011;19370;48.562;9.196;2024-01-10T17:44:05;44.00;;;19.95;;
33010;SDS011;19370;48.562;9.196;2024-01-10T17:46:33;43.67;;;20.93;;
33010;SDS011;19370;48.562;9.196;2024-01-10T17:51:39;44.47;;;19.60;;
33010;SDS011;19370;48.562;9.196;2024-01-10T17:54:07;40.83;;;20.30;;
33010;SDS011;19370;48.562;9.196;2024-01-10T17:56:36;42.90;;;19.23;;
33010;SDS011;19370;48.562;9.196;2024-01-10T17:59:07;38.03;;;19.00;;
33010;SDS011;19370;48.562;9.196;2024-01-10T18:01:36;37.53;;;18.45;;
33010;SDS011;19370;48.562;9.196;2024-01-10T18:04:05;37.40;;;17.48;;
33010;SDS011;19370;48.562;9.196;2024-01-10T18:06:34;40.55;;;18.67;;
33010;SDS011;19370;48.562;9.196;2024-01-10T18:09:01;38.40;;;17.25;;
33010;SDS011;19370;48.562;9.196;2024-01-10T18:11:28;41.17;;;18.93;;
33010;SDS011;19370;48.562;9.196;2024-01-10T18:13:54;38.45;;;18.23;;
33010;SDS011;19370;48.562;9.196;2024-01-10T18:16:20;39.03;;;18.05;;
33010;SDS011;19370;48.562;9.196;2024-01-10T18:18:45;40.00;;;18.27;;
33010;SDS011;19370;48.562;9.196;2024-01-10T18:21:11;42.38;;;19.10;;
33010;SDS011;19370;48.562;9.196;2024-01-10T18:23:37;37.57;;;17.33;;
33010;SDS011;19370;48.562;9.196;2024-01-10T18:26:03;39.65;;;18.13;;
33010;SDS011;19370;48.562;9.196;2024-01-10T18:28:29;35.40;;;17.60;;
33010;SDS011;19370;48.562;9.196;2024-01-10T18:30:56;42.42;;;19.08;;
33010;SDS011;19370;48.562;9.196;2024-01-10T18:33:22;43.50;;;19.17;;
33010;SDS011;19370;48.562;9.196;2024-01-10T18:35:47;46.45;;;19.67;;
33010;SDS011;19370;48.562;9.196;2024-01-10T18:38:15;47.20;;;22.17;;
33010;SDS011;19370;48.562;9.196;2024-01-10T18:40:42;43.00;;;21.38;;
33010;SDS011;19370;48.562;9.196;2024-01-10T18:43:09;46.08;;;21.98;;
33010;SDS011;19370;48.562;9.196;2024-01-10T18:45:36;43.70;;;21.17;;
33010;SDS011;19370;48.562;9.196;2024-01-10T18:48:04;44.03;;;22.10;;
33010;SDS011;19370;48.562;9.196;2024-01-10T18:53:01;49.13;;;22.55;;
33010;SDS011;19370;48.562;9.196;2024-01-10T18:55:30;51.95;;;22.70;;
33010;SDS011;19370;48.562;9.196;2024-01-10T18:57:59;49.65;;;20.95;;
33010;SDS011;19370;48.562;9.196;2024-01-10T19:00:36;46.50;;;21.10;;
33010;SDS011;19370;48.562;9.196;2024-01-10T19:03:03;43.05;;;19.83;;
33010;SDS011;19370;48.562;9.196;2024-01-10T19:05:29;43.75;;;20.95;;
33010;SDS011;19370;48.562;9.196;2024-01-10T19:07:54;47.05;;;21.02;;
33010;SDS011;19370;48.562;9.196;2024-01-10T19:10:20;46.23;;;21.70;;
33010;SDS011;19370;48.562;9.196;2024-01-10T19:12:46;51.33;;;24.60;;
33010;SDS011;19370;48.562;9.196;2024-01-10T19:15:14;53.70;;;24.88;;
33010;SDS011;19370;48.562;9.196;2024-01-10T19:17:41;53.67;;;25.92;;
33010;SDS011;19370;48.562;9.196;2024-01-10T19:20:07;46.87;;;22.90;;
33010;SDS011;19370;48.562;9.196;2024-01-10T19:22:34;50.28;;;23.63;;
33010;SDS011;19370;48.562;9.196;2024-01-10T19:25:00;46.25;;;23.05;;
33010;SDS011;19370;48.562;9.196;2024-01-10T19:27:27;53.03;;;24.20;;
33010;SDS011;19370;48.562;9.196;2024-01-10T19:29:53;46.87;;;21.77;;
33010;SDS011;19370;48.562;9.196;2024-01-10T19:32:18;49.42;;;22.20;;
33010;SDS011;19370;48.562;9.196;2024-01-10T19:34:57;49.27;;;21.90;;
33010;SDS011;19370;48.562;9.196;2024-01-10T19:37:24;47.17;;;21.48;;
33010;SDS011;19370;48.562;9.196;2024-01-10T19:39:50;48.55;;;22.58;;
33010;SDS011;19370;48.562;9.196;2024-01-10T19:48:01;44.17;;;20.20;;
33010;SDS011;19370;48.562;9.196;2024-01-10T19:50:28;43.40;;;19.55;;
33010;SDS011;19370;48.562;9.196;2024-01-10T19:55:28;44.25;;;19.95;;
33010;SDS011;19370;48.562;9.196;2024-01-10T19:57:55;49.47;;;21.53;;
33010;SDS011;19370;48.562;9.196;2024-01-10T20:00:25;44.15;;;19.42;;
33010;SDS011;19370;48.562;9.196;2024-01-10T20:02:52;43.35;;;19.02;;
33010;SDS011;19370;48.562;9.196;2024-01-10T20:05:17;40.88;;;19.35;;
33010;SDS011;19370;48.562;9.196;2024-01-10T20:07:47;42.90;;;18.33;;
33010;SDS011;19370;48.562;9.196;2024-01-10T20:13:38;39.63;;;17.92;;
33010;SDS011;19370;48.562;9.196;2024-01-10T20:19:19;47.22;;;20.50;;
33010;SDS011;19370;48.562;9.196;2024-01-10T20:21:45;47.73;;;20.60;;
33010;SDS011;19370;48.562;9.196;2024-01-10T20:27:19;46.50;;;20.67;;
33010;SDS011;19370;48.562;9.196;2024-01-10T20:29:47;45.67;;;21.23;;
33010;SDS011;19370;48.562;9.196;2024-01-10T20:36:16;50.17;;;23.23;;
33010;SDS011;19370;48.562;9.196;2024-01-10T20:38:43;42.33;;;19.80;;
33010;SDS011;19370;48.562;9.196;2024-01-10T20:41:09;43.63;;;20.38;;
33010;SDS011;19370;48.562;9.196;2024-01-10T20:46:19;46.40;;;20.13;;
33010;SDS011;19370;48.562;9.196;2024-01-10T20:48:45;43.90;;;19.98;;
33010;SDS011;19370;48.562;9.196;2024-01-10T20:51:18;46.07;;;20.23;;
33010;SDS011;19370;48.562;9.196;2024-01-10T20:53:44;45.65;;;19.38;;
33010;SDS011;19370;48.562;9.196;2024-01-10T20:56:09;47.33;;;20.08;;
33010;SDS011;19370;48.562;9.196;2024-01-10T20:58:35;46.53;;;19.27;;
33010;SDS011;19370;48.562;9.196;2024-01-10T21:01:04;45.15;;;20.20;;
33010;SDS011;19370;48.562;9.196;2024-01-10T21:03:29;41.78;;;19.60;;
33010;SDS011;19370;48.562;9.196;2024-01-10T21:05:55;47.42;;;20.00;;
33010;SDS011;19370;48.562;9.196;2024-01-10T21:08:39;43.53;;;19.67;;
33010;SDS011;19370;48.562;9.196;2024-01-10T21:11:16;51.15;;;20.20;;
33010;SDS011;19370;48.562;9.196;2024-01-10T21:13:47;46.90;;;20.67;;
33010;SDS011;19370;48.562;9.196;2024-01-10T21:16:17;51.08;;;22.17;;
33010;SDS011;19370;48.562;9.196;2024-01-10T21:18:43;50.80;;;21.48;;
33010;SDS011;19370;48.562;9.196;2024-01-10T21:21:09;49.67;;;22.17;;
33010;SDS011;19370;48.562;9.196;2024-01-10T21:23:34;47.77;;;20.77;;
33010;SDS011;19370;48.562;9.196;2024-01-10T21:26:00;49.05;;;21.15;;
33010;SDS011;19370;48.562;9.196;2024-01-10T21:28:25;45.27;;;21.50;;
33010;SDS011;19370;48.562;9.196;2024-01-10T21:30:51;49.00;;;21.02;;
33010;SDS011;19370;48.562;9.196;2024-01-10T21:33:23;43.40;;;19.90;;
33010;SDS011;19370;48.562;9.196;2024-01-10T21:35:49;46.95;;;20.35;;
33010;SDS011;19370;48.562;9.196;2024-01-10T21:38:18;44.75;;;19.30;;
33010;SDS011;19370;48.562;9.196;2024-01-10T21:43:33;40.13;;;17.92;;
33010;SDS011;19370;48.562;9.196;2024-01-10T21:46:02;41.58;;;19.02;;
33010;SDS011;19370;48.562;9.196;2024-01-10T21:48:30;38.38;;;18.02;;
33010;SDS011;19370;48.562;9.196;2024-01-10T21:50:59;44.00;;;20.07;;
33010;SDS011;19370;48.562;9.196;2024-01-10T21:53:26;43.40;;;19.85;;
33010;SDS011;19370;48.562;9.196;2024-01-10T21:56:05;42.17;;;20.23;;
33010;SDS011;19370;48.562;9.196;2024-01-10T22:01:03;41.70;;;19.15;;
33010;SDS011;19370;48.562;9.196;2024-01-10T22:03:37;41.40;;;18.43;;
33010;SDS011;19370;48.562;9.196;2024-01-10T22:06:10;41.65;;;18.55;;
33010;SDS011;19370;48.562;9.196;2024-01-10T22:08:39;46.42;;;18.77;;
33010;SDS011;19370;48.562;9.196;2024-01-10T22:11:05;44.30;;;19.53;;
33010;SDS011;19370;48.562;9.196;2024-01-10T22:13:32;40.05;;;18.35;;
33010;SDS011;19370;48.562;9.196;2024-01-10T22:15:58;38.28;;;17.88;;
33010;SDS011;19370;48.562;9.196;2024-01-10T22:18:27;38.67;;;17.93;;
33010;SDS011;19370;48.562;9.196;2024-01-10T22:20:56;40.17;;;18.60;;
33010;SDS011;19370;48.562;9.196;2024-01-10T22:23:26;41.80;;;18.05;;
33010;SDS011;19370;48.562;9.196;2024-01-10T22:25:54;44.33;;;19.97;;
33010;SDS011;19370;48.562;9.196;2024-01-10T22:28:33;53.78;;;20.55;;
33010;SDS011;19370;48.562;9.196;2024-01-10T22:31:02;47.63;;;20.02;;
33010;SDS011;19370;48.562;9.196;2024-01-10T22:33:28;48.10;;;20.13;;
33010;SDS011;19370;48.562;9.196;2024-01-10T22:36:12;43.42;;;18.45;;
33010;SDS011;19370;48.562;9.196;2024-01-10T22:38:41;48.00;;;19.87;;
33010;SDS011;19370;48.562;9.196;2024-01-10T22:41:23;44.08;;;19.75;;
33010;SDS011;19370;48.562;9.196;2024-01-10T22:43:52;44.40;;;19.02;;
33010;SDS011;19370;48.562;9.196;2024-01-10T22:46:17;44.40;;;19.38;;
33010;SDS011;19370;48.562;9.196;2024-01-10T22:48:54;42.93;;;18.37;;
33010;SDS011;19370;48.562;9.196;2024-01-10T22:51:19;43.22;;;18.95;;
33010;SDS011;19370;48.562;9.196;2024-01-10T22:53:50;38.65;;;18.05;;
33010;SDS011;19370;48.562;9.196;2024-01-10T22:59:16;43.90;;;18.98;;
33010;SDS011;19370;48.562;9.196;2024-01-10T23:01:50;39.70;;;17.20;;
33010;SDS011;19370;48.562;9.196;2024-01-10T23:04:38;41.67;;;17.50;;
33010;SDS011;19370;48.562;9.196;2024-01-10T23:13:07;40.50;;;18.02;;
33010;SDS011;19370;48.562;9.196;2024-01-10T23:15:35;40.70;;;17.17;;
33010;SDS011;19370;48.562;9.196;2024-01-10T23:18:04;42.35;;;18.70;;
33010;SDS011;19370;48.562;9.196;2024-01-10T23:20:30;42.50;;;18.23;;
33010;SDS011;19370;48.562;9.196;2024-01-10T23:23:12;41.30;;;18.23;;
33010;SDS011;19370;48.562;9.196;2024-01-10T23:26:11;43.17;;;17.30;;
33010;SDS011;19370;48.562;9.196;2024-01-10T23:28:54;43.65;;;18.40;;
33010;SDS011;19370;48.562;9.196;2024-01-10T23:31:23;44.67;;;18.47;;
33010;SDS011;19370;48.562;9.196;2024-01-10T23:34:19;41.60;;;18.25;;
33010;SDS011;19370;48.562;9.196;2024-01-10T23:37:01;44.25;;;19.27;;
33010;SDS011;19370;48.562;9.196;2024-01-10T23:39:35;49.42;;;21.80;;
33010;SDS011;19370;48.562;9.196;2024-01-10T23:42:01;49.90;;;21.20;;
33010;SDS011;19370;48.562;9.196;2024-01-10T23:46:58;47.47;;;19.85;;
33010;SDS011;19370;48.562;9.196;2024-01-10T23:49:27;47.03;;;19.70;;
33010;SDS011;19370;48.562;9.196;2024-01-10T23:51:58;47.30;;;19.90;;
33010;SDS011;19370;48.562;9.196;2024-01-10T23:57:28;47.30;;;19.75;;
33010;SDS011;19370;48.562;9.196;2024-01-10T23:59:54;46.05;;;19.38;;
